sensor_id;sensor_type;location;lat;lon;timestamp;P1;durP1;ratioP1;P2;durP2;ratioP2
77720;SDS011;75573;44.482;0.080;2024-03-08T09:12:31;-1.00;;;-1.00;;
77720;SDS011;75573;44.482;0.080;2024-03-08T09:15:07;-1.00;;;-1.00;;
77720;SDS011;75573;44.482;0.080;2024-03-08T09:30:35;-1.00;;;-1.00;;
77720;SDS011;75573;44.482;0.080;2024-03-08T09:46:08;-1.00;;;-1.00;;
77720;SDS011;75573;44.482;0.080;2024-03-08T10:18:28;-1.00;;;-1.00;;
77720;SDS011;75573;44.482;0.080;2024-03-08T10:21:02;-1.00;;;-1.00;;
77720;SDS011;75573;44.482;0.080;2024-03-08T10:34:59;-1.00;;;-1.00;;
77720;SDS011;75573;44.482;0.080;2024-03-08T10:50:33;3.63;;;1.00;;
77720;SDS011;75573;44.482;0.080;2024-03-08T11:06:05;3.30;;;1.03;;
77720;SDS011;75573;44.482;0.080;2024-03-08T11:21:36;4.53;;;1.37;;
77720;SDS011;75573;44.482;0.080;2024-03-08T11:37:12;1.43;;;0.60;;
77720;SDS011;75573;44.482;0.080;2024-03-08T11:52:43;2.17;;;0.70;;
77720;SDS011;75573;44.482;0.080;2024-03-08T12:08:15;2.13;;;0.90;;
77720;SDS011;75573;44.482;0.080;2024-03-08T12:23:48;0.67;;;0.40;;
77720;SDS011;75573;44.482;0.080;2024-03-08T12:39:20;2.00;;;0.67;;
77720;SDS011;75573;44.482;0.080;2024-03-08T12:54:52;3.03;;;0.90;;
77720;SDS011;75573;44.482;0.080;2024-03-08T13:10:26;2.33;;;0.80;;
77720;SDS011;75573;44.482;0.080;2024-03-08T13:26:00;1.40;;;0.60;;
77720;SDS011;75573;44.482;0.080;2024-03-08T13:41:31;1.80;;;0.60;;
77720;SDS011;75573;44.482;0.080;2024-03-08T13:57:02;0.40;;;0.30;;
77720;SDS011;75573;44.482;0.080;2024-03-08T14:12:34;0.87;;;0.37;;
77720;SDS011;75573;44.482;0.080;2024-03-08T14:28:06;1.43;;;0.60;;
77720;SDS011;75573;44.482;0.080;2024-03-08T14:43:38;1.33;;;0.60;;
77720;SDS011;75573;44.482;0.080;2024-03-08T14:59:11;1.13;;;0.40;;
77720;SDS011;75573;44.482;0.080;2024-03-08T15:14:43;1.23;;;0.50;;
77720;SDS011;75573;44.482;0.080;2024-03-08T15:30:15;1.97;;;0.90;;
77720;SDS011;75573;44.482;0.080;2024-03-08T15:45:47;0.87;;;0.60;;
77720;SDS011;75573;44.482;0.080;2024-03-08T16:01:18;1.57;;;0.90;;
77720;SDS011;75573;44.482;0.080;2024-03-08T16:16:50;0.67;;;0.30;;
77720;SDS011;75573;44.482;0.080;2024-03-08T16:32:22;2.00;;;0.80;;
77720;SDS011;75573;44.482;0.080;2024-03-08T16:47:54;1.60;;;0.50;;
77720;SDS011;75573;44.482;0.080;2024-03-08T17:03:28;1.63;;;0.50;;
77720;SDS011;75573;44.482;0.080;2024-03-08T17:19:00;1.17;;;0.60;;
77720;SDS011;75573;44.482;0.080;2024-03-08T17:34:33;1.13;;;0.50;;
77720;SDS011;75573;44.482;0.080;2024-03-08T17:50:05;1.67;;;0.60;;
77720;SDS011;75573;44.482;0.080;2024-03-08T18:05:37;4.63;;;0.73;;
77720;SDS011;75573;44.482;0.080;2024-03-08T18:21:08;0.30;;;0.30;;
77720;SDS011;75573;44.482;0.080;2024-03-08T18:36:41;0.30;;;0.30;;
77720;SDS011;75573;44.482;0.080;2024-03-08T18:52:13;2.73;;;1.00;;
77720;SDS011;75573;44.482;0.080;2024-03-08T19:07:46;1.00;;;0.30;;
77720;SDS011;75573;44.482;0.080;2024-03-08T19:23:17;1.50;;;1.00;;
77720;SDS011;75573;44.482;0.080;2024-03-08T19:38:49;0.43;;;0.37;;
77720;SDS011;75573;44.482;0.080;2024-03-08T19:54:22;0.90;;;0.40;;
77720;SDS011;75573;44.482;0.080;2024-03-08T20:09:54;0.70;;;0.50;;
77720;SDS011;75573;44.482;0.080;2024-03-08T20:25:26;4.53;;;1.40;;
77720;SDS011;75573;44.482;0.080;2024-03-08T20:40:59;6.23;;;1.50;;
77720;SDS011;75573;44.482;0.080;2024-03-08T20:56:32;4.23;;;2.00;;
77720;SDS011;75573;44.482;0.080;2024-03-08T21:12:05;6.83;;;2.93;;
77720;SDS011;75573;44.482;0.080;2024-03-08T21:27:37;6.73;;;3.20;;
77720;SDS011;75573;44.482;0.080;2024-03-08T21:43:09;5.53;;;1.90;;
77720;SDS011;75573;44.482;0.080;2024-03-08T21:58:42;3.67;;;2.07;;
77720;SDS011;75573;44.482;0.080;2024-03-08T22:14:15;4.70;;;2.27;;
77720;SDS011;75573;44.482;0.080;2024-03-08T22:29:47;1.00;;;0.80;;
77720;SDS011;75573;44.482;0.080;2024-03-08T22:45:20;1.70;;;0.70;;
77720;SDS011;75573;44.482;0.080;2024-03-08T23:00:54;1.77;;;0.60;;
77720;SDS011;75573;44.482;0.080;2024-03-08T23:16:27;0.80;;;0.63;;
77720;SDS011;75573;44.482;0.080;2024-03-08T23:32:00;2.57;;;1.00;;
77720;SDS011;75573;44.482;0.080;2024-03-08T23:47:33;2.37;;;0.93;;
